sensor_id;sensor_type;location;lat;lon;timestamp;pressure;altitude;pressure_sealevel;temperature;humidity
51321;BME280;38732;49.556;6.286;2022-09-01T00:01:49;99835.75;;;20.26;80.79
51321;BME280;38732;49.556;6.286;2022-09-01T00:04:23;99837.78;;;20.18;82.26
51321;BME280;38732;49.556;6.286;2022-09-01T00:06:53;99831.31;;;20.28;83.74
51321;BME280;38732;49.556;6.286;2022-09-01T00:09:22;99829.97;;;20.16;80.82
51321;BME280;38732;49.556;6.286;2022-09-01T00:11:53;99827.72;;;20.06;82.36
51321;BME280;38732;49.556;6.286;2022-09-01T00:14:27;99832.91;;;20.07;82.94
51321;BME280;38732;49.556;6.286;2022-09-01T00:16:58;99840.00;;;20.03;83.36
51321;BME280;38732;49.556;6.286;2022-09-01T00:19:27;99834.66;;;20.07;83.16
51321;BME280;38732;49.556;6.286;2022-09-01T00:21:55;99840.25;;;19.96;83.95
51321;BME280;38732;49.556;6.286;2022-09-01T00:24:24;99842.88;;;19.96;82.51
51321;BME280;38732;49.556;6.286;2022-09-01T00:26:53;99841.91;;;19.98;82.28
51321;BME280;38732;49.556;6.286;2022-09-01T00:29:23;99843.47;;;20.04;81.64
51321;BME280;38732;49.556;6.286;2022-09-01T00:31:52;99842.69;;;20.02;81.51
51321;BME280;38732;49.556;6.286;2022-09-01T00:34:20;99842.84;;;19.97;81.12
51321;BME280;38732;49.556;6.286;2022-09-01T00:36:49;99843.22;;;19.85;81.66
51321;BME280;38732;49.556;6.286;2022-09-01T00:39:17;99844.38;;;19.76;81.75
51321;BME280;38732;49.556;6.286;2022-09-01T00:41:45;99846.16;;;19.74;82.50
51321;BME280;38732;49.556;6.286;2022-09-01T00:44:16;99840.16;;;19.72;82.66
51321;BME280;38732;49.556;6.286;2022-09-01T00:46:47;99845.09;;;19.52;83.64
51321;BME280;38732;49.556;6.286;2022-09-01T00:49:20;99846.81;;;19.53;83.16
51321;BME280;38732;49.556;6.286;2022-09-01T00:51:53;99848.88;;;19.43;83.68
51321;BME280;38732;49.556;6.286;2022-09-01T00:54:25;99854.22;;;19.38;84.60
51321;BME280;38732;49.556;6.286;2022-09-01T00:56:55;99860.38;;;19.37;83.94
51321;BME280;38732;49.556;6.286;2022-09-01T00:59:25;99852.75;;;19.30;84.68
51321;BME280;38732;49.556;6.286;2022-09-01T01:01:55;99853.47;;;19.35;83.37
51321;BME280;38732;49.556;6.286;2022-09-01T01:04:24;99860.38;;;19.37;83.33
51321;BME280;38732;49.556;6.286;2022-09-01T01:06:54;99852.06;;;19.23;83.54
51321;BME280;38732;49.556;6.286;2022-09-01T01:09:26;99856.22;;;19.30;83.49
51321;BME280;38732;49.556;6.286;2022-09-01T01:11:57;99857.34;;;19.22;83.42
51321;BME280;38732;49.556;6.286;2022-09-01T01:14:27;99857.94;;;19.31;83.08
51321;BME280;38732;49.556;6.286;2022-09-01T01:16:58;99856.22;;;19.30;82.57
51321;BME280;38732;49.556;6.286;2022-09-01T01:22:05;99851.34;;;19.18;82.57
51321;BME280;38732;49.556;6.286;2022-09-01T01:24:35;99850.63;;;19.13;83.07
51321;BME280;38732;49.556;6.286;2022-09-01T01:27:03;99852.34;;;19.14;83.82
51321;BME280;38732;49.556;6.286;2022-09-01T01:29:35;99845.50;;;19.10;83.52
51321;BME280;38732;49.556;6.286;2022-09-01T01:32:03;99849.22;;;19.01;83.58
51321;BME280;38732;49.556;6.286;2022-09-01T01:34:31;99845.41;;;19.13;83.01
51321;BME280;38732;49.556;6.286;2022-09-01T01:37:00;99844.81;;;19.02;83.84
51321;BME280;38732;49.556;6.286;2022-09-01T01:39:28;99843.28;;;18.94;83.25
51321;BME280;38732;49.556;6.286;2022-09-01T01:41:57;99847.59;;;18.97;83.72
51321;BME280;38732;49.556;6.286;2022-09-01T01:44:26;99845.84;;;18.98;83.18
51321;BME280;38732;49.556;6.286;2022-09-01T01:46:55;99848.69;;;18.90;83.00
51321;BME280;38732;49.556;6.286;2022-09-01T01:49:26;99847.63;;;18.95;82.36
51321;BME280;38732;49.556;6.286;2022-09-01T01:51:54;99850.13;;;19.00;81.03
51321;BME280;38732;49.556;6.286;2022-09-01T01:54:24;99856.25;;;18.99;80.83
51321;BME280;38732;49.556;6.286;2022-09-01T01:56:53;99857.84;;;19.05;80.38
51321;BME280;38732;49.556;6.286;2022-09-01T01:59:21;99863.16;;;19.02;80.40
51321;BME280;38732;49.556;6.286;2022-09-01T02:01:49;99852.47;;;19.09;79.58
51321;BME280;38732;49.556;6.286;2022-09-01T02:04:19;99854.09;;;19.13;79.03
51321;BME280;38732;49.556;6.286;2022-09-01T02:06:48;99858.72;;;19.05;78.39
51321;BME280;38732;49.556;6.286;2022-09-01T02:09:19;99854.34;;;19.04;78.82
51321;BME280;38732;49.556;6.286;2022-09-01T02:11:48;99855.31;;;19.02;78.66
51321;BME280;38732;49.556;6.286;2022-09-01T02:14:16;99851.91;;;19.00;79.69
51321;BME280;38732;49.556;6.286;2022-09-01T02:16:44;99843.94;;;19.03;78.45
51321;BME280;38732;49.556;6.286;2022-09-01T02:19:13;99849.22;;;19.01;77.69
51321;BME280;38732;49.556;6.286;2022-09-01T02:21:41;99848.34;;;19.02;78.33
51321;BME280;38732;49.556;6.286;2022-09-01T02:24:09;99844.06;;;18.98;78.24
51321;BME280;38732;49.556;6.286;2022-09-01T02:26:43;99851.69;;;19.07;77.19
51321;BME280;38732;49.556;6.286;2022-09-01T02:29:22;99848.28;;;19.04;77.21
51321;BME280;38732;49.556;6.286;2022-09-01T02:31:52;99849.28;;;19.00;78.03
51321;BME280;38732;49.556;6.286;2022-09-01T02:34:22;99855.47;;;18.97;76.82
51321;BME280;38732;49.556;6.286;2022-09-01T02:36:53;99848.81;;;18.85;77.50
51321;BME280;38732;49.556;6.286;2022-09-01T02:39:26;99840.88;;;18.87;78.02
51321;BME280;38732;49.556;6.286;2022-09-01T02:41:55;99840.00;;;18.88;78.66
51321;BME280;38732;49.556;6.286;2022-09-01T02:44:24;99837.72;;;18.75;77.82
51321;BME280;38732;49.556;6.286;2022-09-01T02:46:52;99842.00;;;18.78;78.48
51321;BME280;38732;49.556;6.286;2022-09-01T02:49:22;99843.66;;;18.82;78.32
51321;BME280;38732;49.556;6.286;2022-09-01T02:51:51;99837.47;;;18.85;77.30
51321;BME280;38732;49.556;6.286;2022-09-01T02:54:20;99845.47;;;18.79;77.27
51321;BME280;38732;49.556;6.286;2022-09-01T02:56:50;99834.81;;;18.86;77.38
51321;BME280;38732;49.556;6.286;2022-09-01T02:59:21;99829.56;;;18.86;77.46
51321;BME280;38732;49.556;6.286;2022-09-01T03:01:51;99835.03;;;18.79;78.35
51321;BME280;38732;49.556;6.286;2022-09-01T03:04:21;99831.44;;;18.83;77.74
51321;BME280;38732;49.556;6.286;2022-09-01T03:06:49;99829.75;;;18.80;79.23
51321;BME280;38732;49.556;6.286;2022-09-01T03:09:17;99834.19;;;18.77;78.11
51321;BME280;38732;49.556;6.286;2022-09-01T03:11:49;99830.09;;;18.66;76.58
51321;BME280;38732;49.556;6.286;2022-09-01T03:14:19;99837.19;;;18.63;77.47
51321;BME280;38732;49.556;6.286;2022-09-01T03:16:48;99829.44;;;18.58;77.41
51321;BME280;38732;49.556;6.286;2022-09-01T03:19:17;99834.81;;;18.52;77.75
51321;BME280;38732;49.556;6.286;2022-09-01T03:21:46;99845.56;;;18.41;77.41
51321;BME280;38732;49.556;6.286;2022-09-01T03:24:16;99841.19;;;18.42;79.19
51321;BME280;38732;49.556;6.286;2022-09-01T03:26:45;99840.41;;;18.40;78.92
51321;BME280;38732;49.556;6.286;2022-09-01T03:29:14;99841.25;;;18.40;78.24
51321;BME280;38732;49.556;6.286;2022-09-01T03:31:42;99843.78;;;18.43;77.74
51321;BME280;38732;49.556;6.286;2022-09-01T03:34:11;99838.97;;;18.28;77.74
51321;BME280;38732;49.556;6.286;2022-09-01T03:36:39;99838.09;;;18.27;77.94
51321;BME280;38732;49.556;6.286;2022-09-01T03:39:07;99835.81;;;18.14;78.53
51321;BME280;38732;49.556;6.286;2022-09-01T03:41:35;99842.94;;;18.07;78.56
51321;BME280;38732;49.556;6.286;2022-09-01T03:44:04;99846.09;;;18.21;79.64
51321;BME280;38732;49.556;6.286;2022-09-01T03:46:32;99837.47;;;18.18;78.20
51321;BME280;38732;49.556;6.286;2022-09-01T03:49:00;99831.25;;;18.22;78.09
51321;BME280;38732;49.556;6.286;2022-09-01T03:51:28;99838.41;;;18.15;78.29
51321;BME280;38732;49.556;6.286;2022-09-01T03:53:57;99837.41;;;18.19;78.67
51321;BME280;38732;49.556;6.286;2022-09-01T03:56:27;99837.81;;;18.04;77.19
51321;BME280;38732;49.556;6.286;2022-09-01T03:58:57;99835.25;;;18.02;77.82
51321;BME280;38732;49.556;6.286;2022-09-01T04:01:28;99841.41;;;18.00;78.76
51321;BME280;38732;49.556;6.286;2022-09-01T04:03:57;99834.06;;;17.80;78.56
51321;BME280;38732;49.556;6.286;2022-09-01T04:06:25;99833.19;;;17.78;79.31
51321;BME280;38732;49.556;6.286;2022-09-01T04:08:53;99834.00;;;17.81;79.44
51321;BME280;38732;49.556;6.286;2022-09-01T04:11:22;99831.06;;;17.95;79.43
51321;BME280;38732;49.556;6.286;2022-09-01T04:13:50;99831.00;;;17.97;77.74
51321;BME280;38732;49.556;6.286;2022-09-01T04:16:24;99828.50;;;17.92;77.84
51321;BME280;38732;49.556;6.286;2022-09-01T04:18:53;99826.31;;;17.74;78.30
51321;BME280;38732;49.556;6.286;2022-09-01T04:21:21;99826.56;;;17.63;78.75
51321;BME280;38732;49.556;6.286;2022-09-01T04:23:49;99827.53;;;17.59;78.54
51321;BME280;38732;49.556;6.286;2022-09-01T04:26:18;99825.06;;;17.53;79.06
51321;BME280;38732;49.556;6.286;2022-09-01T04:28:47;99830.38;;;17.48;78.64
51321;BME280;38732;49.556;6.286;2022-09-01T04:31:18;99824.25;;;17.49;79.55
51321;BME280;38732;49.556;6.286;2022-09-01T04:33:49;99826.44;;;17.30;79.72
51321;BME280;38732;49.556;6.286;2022-09-01T04:36:23;99819.53;;;17.28;80.44
51321;BME280;38732;49.556;6.286;2022-09-01T04:38:55;99829.25;;;17.19;80.56
51321;BME280;38732;49.556;6.286;2022-09-01T04:41:27;99832.63;;;17.24;80.65
51321;BME280;38732;49.556;6.286;2022-09-01T04:43:58;99830.22;;;17.15;81.21
51321;BME280;38732;49.556;6.286;2022-09-01T04:46:27;99827.88;;;17.03;81.34
51321;BME280;38732;49.556;6.286;2022-09-01T04:48:56;99831.34;;;17.03;81.94
51321;BME280;38732;49.556;6.286;2022-09-01T04:51:24;99831.09;;;17.16;81.73
51321;BME280;38732;49.556;6.286;2022-09-01T04:53:56;99829.34;;;17.16;81.75
51321;BME280;38732;49.556;6.286;2022-09-01T04:56:25;99836.50;;;17.07;80.42
51321;BME280;38732;49.556;6.286;2022-09-01T04:58:53;99832.25;;;17.01;81.84
51321;BME280;38732;49.556;6.286;2022-09-01T05:01:24;99839.19;;;17.02;81.73
51321;BME280;38732;49.556;6.286;2022-09-01T05:03:53;99835.78;;;17.00;81.65
51321;BME280;38732;49.556;6.286;2022-09-01T05:06:22;99828.59;;;17.10;82.20
51321;BME280;38732;49.556;6.286;2022-09-01T05:08:50;99832.09;;;17.10;81.53
51321;BME280;38732;49.556;6.286;2022-09-01T05:11:18;99837.22;;;17.13;81.14
51321;BME280;38732;49.556;6.286;2022-09-01T05:13:47;99832.34;;;16.98;79.56
51321;BME280;38732;49.556;6.286;2022-09-01T05:16:18;99836.81;;;16.90;81.52
51321;BME280;38732;49.556;6.286;2022-09-01T05:18:48;99837.88;;;16.81;81.68
51321;BME280;38732;49.556;6.286;2022-09-01T05:21:19;99832.72;;;16.78;82.23
51321;BME280;38732;49.556;6.286;2022-09-01T05:23:47;99833.56;;;16.80;82.77
51321;BME280;38732;49.556;6.286;2022-09-01T05:26:19;99833.63;;;16.75;83.58
51321;BME280;38732;49.556;6.286;2022-09-01T05:28:50;99829.16;;;16.82;84.09
51321;BME280;38732;49.556;6.286;2022-09-01T05:31:20;99833.34;;;16.89;82.79
51321;BME280;38732;49.556;6.286;2022-09-01T05:33:49;99835.97;;;16.89;84.29
51321;BME280;38732;49.556;6.286;2022-09-01T05:36:20;99838.41;;;16.97;83.53
51321;BME280;38732;49.556;6.286;2022-09-01T05:38:49;99836.69;;;16.97;83.47
51321;BME280;38732;49.556;6.286;2022-09-01T05:41:19;99843.72;;;16.92;84.27
51321;BME280;38732;49.556;6.286;2022-09-01T05:43:49;99842.94;;;16.90;84.21
51321;BME280;38732;49.556;6.286;2022-09-01T05:46:20;99850.59;;;16.98;83.82
51321;BME280;38732;49.556;6.286;2022-09-01T05:48:51;99848.06;;;16.93;84.75
51321;BME280;38732;49.556;6.286;2022-09-01T05:51:23;99852.28;;;17.00;84.46
51321;BME280;38732;49.556;6.286;2022-09-01T05:53:53;99848.66;;;17.08;84.77
51321;BME280;38732;49.556;6.286;2022-09-01T05:56:22;99844.06;;;17.19;83.87
51321;BME280;38732;49.556;6.286;2022-09-01T05:58:50;99850.03;;;17.25;84.85
51321;BME280;38732;49.556;6.286;2022-09-01T06:01:24;99851.56;;;17.34;85.03
51321;BME280;38732;49.556;6.286;2022-09-01T06:03:55;99847.16;;;17.38;85.49
51321;BME280;38732;49.556;6.286;2022-09-01T06:06:26;99848.47;;;17.57;83.56
51321;BME280;38732;49.556;6.286;2022-09-01T06:08:55;99849.25;;;17.61;81.33
51321;BME280;38732;49.556;6.286;2022-09-01T06:11:25;99844.63;;;17.72;81.06
51321;BME280;38732;49.556;6.286;2022-09-01T06:13:53;99839.13;;;17.84;80.28
51321;BME280;38732;49.556;6.286;2022-09-01T06:16:22;99852.03;;;17.92;80.31
51321;BME280;38732;49.556;6.286;2022-09-01T06:18:50;99858.63;;;18.07;79.91
51321;BME280;38732;49.556;6.286;2022-09-01T06:21:20;99849.69;;;18.17;78.53
51321;BME280;38732;49.556;6.286;2022-09-01T06:23:50;99849.19;;;18.37;80.72
51321;BME280;38732;49.556;6.286;2022-09-01T06:26:27;99848.09;;;18.44;79.07
51321;BME280;38732;49.556;6.286;2022-09-01T06:28:58;99859.31;;;18.49;79.12
51321;BME280;38732;49.556;6.286;2022-09-01T06:31:29;99851.19;;;18.60;78.16
51321;BME280;38732;49.556;6.286;2022-09-01T06:33:57;99853.59;;;18.68;77.89
51321;BME280;38732;49.556;6.286;2022-09-01T06:36:26;99855.81;;;18.83;76.17
51321;BME280;38732;49.556;6.286;2022-09-01T06:38:54;99856.31;;;18.98;75.99
51321;BME280;38732;49.556;6.286;2022-09-01T06:41:23;99848.41;;;18.99;73.77
51321;BME280;38732;49.556;6.286;2022-09-01T06:43:51;99850.63;;;19.13;73.44
51321;BME280;38732;49.556;6.286;2022-09-01T06:46:21;99851.22;;;19.23;70.56
51321;BME280;38732;49.556;6.286;2022-09-01T06:48:49;99858.75;;;19.33;73.00
51321;BME280;38732;49.556;6.286;2022-09-01T06:51:20;99855.97;;;19.39;71.77
51321;BME280;38732;49.556;6.286;2022-09-01T06:53:50;99849.44;;;19.53;70.32
51321;BME280;38732;49.556;6.286;2022-09-01T06:56:19;99854.41;;;19.62;69.11
51321;BME280;38732;49.556;6.286;2022-09-01T06:58:47;99857.56;;;19.73;69.65
51321;BME280;38732;49.556;6.286;2022-09-01T07:01:18;99848.75;;;19.76;68.10
51321;BME280;38732;49.556;6.286;2022-09-01T07:03:48;99854.53;;;19.87;70.89
51321;BME280;38732;49.556;6.286;2022-09-01T07:06:19;99857.91;;;19.91;69.01
51321;BME280;38732;49.556;6.286;2022-09-01T07:08:48;99862.88;;;19.98;68.64
51321;BME280;38732;49.556;6.286;2022-09-01T07:11:19;99863.16;;;20.17;68.16
51321;BME280;38732;49.556;6.286;2022-09-01T07:13:47;99856.53;;;20.32;68.17
51321;BME280;38732;49.556;6.286;2022-09-01T07:16:16;99853.53;;;20.43;66.82
51321;BME280;38732;49.556;6.286;2022-09-01T07:18:45;99853.13;;;20.57;66.77
51321;BME280;38732;49.556;6.286;2022-09-01T07:21:13;99857.97;;;20.67;63.72
51321;BME280;38732;49.556;6.286;2022-09-01T07:23:41;99854.28;;;20.73;63.98
51321;BME280;38732;49.556;6.286;2022-09-01T07:26:10;99854.81;;;20.83;65.03
51321;BME280;38732;49.556;6.286;2022-09-01T07:28:38;99861.66;;;20.87;62.34
51321;BME280;38732;49.556;6.286;2022-09-01T07:31:06;99857.53;;;20.80;63.10
51321;BME280;38732;49.556;6.286;2022-09-01T07:33:35;99855.44;;;20.89;62.55
51321;BME280;38732;49.556;6.286;2022-09-01T07:36:03;99858.13;;;21.11;62.18
51321;BME280;38732;49.556;6.286;2022-09-01T07:38:31;99862.16;;;21.22;65.36
51321;BME280;38732;49.556;6.286;2022-09-01T07:40:59;99855.38;;;21.38;63.48
51321;BME280;38732;49.556;6.286;2022-09-01T07:43:28;99857.91;;;21.41;62.61
51321;BME280;38732;49.556;6.286;2022-09-01T07:45:56;99854.09;;;21.50;62.67
51321;BME280;38732;49.556;6.286;2022-09-01T07:48:26;99855.00;;;21.49;63.04
51321;BME280;38732;49.556;6.286;2022-09-01T07:50:55;99849.94;;;21.66;62.57
51321;BME280;38732;49.556;6.286;2022-09-01T07:53:27;99848.06;;;21.70;62.48
51321;BME280;38732;49.556;6.286;2022-09-01T07:55:57;99853.63;;;21.84;59.46
51321;BME280;38732;49.556;6.286;2022-09-01T07:58:28;99853.09;;;21.96;62.70
51321;BME280;38732;49.556;6.286;2022-09-01T08:00:56;99848.53;;;22.02;62.30
51321;BME280;38732;49.556;6.286;2022-09-01T08:03:24;99846.56;;;22.07;58.13
51321;BME280;38732;49.556;6.286;2022-09-01T08:05:53;99848.00;;;22.14;59.08
51321;BME280;38732;49.556;6.286;2022-09-01T08:08:21;99851.09;;;22.25;57.64
51321;BME280;38732;49.556;6.286;2022-09-01T08:10:49;99848.41;;;21.83;59.52
51321;BME280;38732;49.556;6.286;2022-09-01T08:13:18;99849.16;;;22.29;58.19
51321;BME280;38732;49.556;6.286;2022-09-01T08:15:46;99849.53;;;22.42;57.91
51321;BME280;38732;49.556;6.286;2022-09-01T08:18:14;99853.06;;;22.20;59.17
51321;BME280;38732;49.556;6.286;2022-09-01T08:20:43;99847.13;;;22.56;59.30
51321;BME280;38732;49.556;6.286;2022-09-01T08:23:14;99849.91;;;22.73;59.04
51321;BME280;38732;49.556;6.286;2022-09-01T08:25:45;99846.53;;;22.90;57.54
51321;BME280;38732;49.556;6.286;2022-09-01T08:28:14;99843.56;;;22.98;55.25
51321;BME280;38732;49.556;6.286;2022-09-01T08:30:43;99847.66;;;23.05;54.83
51321;BME280;38732;49.556;6.286;2022-09-01T08:33:12;99842.88;;;23.13;54.69
51321;BME280;38732;49.556;6.286;2022-09-01T08:35:42;99850.00;;;23.30;58.03
51321;BME280;38732;49.556;6.286;2022-09-01T08:38:11;99852.06;;;23.42;55.13
51321;BME280;38732;49.556;6.286;2022-09-01T08:40:40;99846.22;;;23.36;56.21
51321;BME280;38732;49.556;6.286;2022-09-01T08:46:00;99848.00;;;23.73;55.96
51321;BME280;38732;49.556;6.286;2022-09-01T08:48:37;99847.25;;;23.88;55.39
51321;BME280;38732;49.556;6.286;2022-09-01T08:51:49;99849.16;;;24.04;54.58
51321;BME280;38732;49.556;6.286;2022-09-01T08:54:39;99837.69;;;24.22;55.00
51321;BME280;38732;49.556;6.286;2022-09-01T08:57:16;99842.56;;;24.30;52.06
51321;BME280;38732;49.556;6.286;2022-09-01T08:59:46;99839.69;;;24.35;52.04
51321;BME280;38732;49.556;6.286;2022-09-01T09:05:25;99839.69;;;24.69;52.52
51321;BME280;38732;49.556;6.286;2022-09-01T09:10:54;99833.97;;;25.10;51.70
51321;BME280;38732;49.556;6.286;2022-09-01T09:16:04;99829.84;;;25.38;50.46
51321;BME280;38732;49.556;6.286;2022-09-01T09:21:17;99826.53;;;25.66;47.94
51321;BME280;38732;49.556;6.286;2022-09-01T09:23:50;99839.31;;;25.74;48.61
51321;BME280;38732;49.556;6.286;2022-09-01T09:26:22;99825.25;;;25.89;47.61
51321;BME280;38732;49.556;6.286;2022-09-01T09:28:50;99821.56;;;25.92;46.69
51321;BME280;38732;49.556;6.286;2022-09-01T09:31:34;99829.06;;;25.83;50.04
51321;BME280;38732;49.556;6.286;2022-09-01T09:34:15;99823.31;;;26.07;47.37
51321;BME280;38732;49.556;6.286;2022-09-01T09:36:44;99824.34;;;26.35;47.32
51321;BME280;38732;49.556;6.286;2022-09-01T09:39:17;99825.13;;;26.51;48.43
51321;BME280;38732;49.556;6.286;2022-09-01T09:42:07;99818.47;;;26.74;44.81
51321;BME280;38732;49.556;6.286;2022-09-01T09:44:46;99816.75;;;26.87;45.56
51321;BME280;38732;49.556;6.286;2022-09-01T09:47:40;99826.22;;;27.06;47.37
51321;BME280;38732;49.556;6.286;2022-09-01T09:52:43;99812.94;;;27.20;45.93
51321;BME280;38732;49.556;6.286;2022-09-01T09:55:29;99809.09;;;27.53;43.94
51321;BME280;38732;49.556;6.286;2022-09-01T09:58:00;99806.34;;;27.54;43.34
51321;BME280;38732;49.556;6.286;2022-09-01T10:00:36;99801.19;;;27.66;43.61
51321;BME280;38732;49.556;6.286;2022-09-01T10:03:07;99795.69;;;27.96;43.63
51321;BME280;38732;49.556;6.286;2022-09-01T10:05:38;99792.69;;;28.01;43.80
51321;BME280;38732;49.556;6.286;2022-09-01T10:08:35;99791.22;;;27.96;43.68
51321;BME280;38732;49.556;6.286;2022-09-01T10:11:00;99788.41;;;27.85;44.52
51321;BME280;38732;49.556;6.286;2022-09-01T10:13:30;99785.66;;;28.39;43.17
51321;BME280;38732;49.556;6.286;2022-09-01T10:16:01;99783.97;;;28.38;41.96
51321;BME280;38732;49.556;6.286;2022-09-01T10:18:41;99783.34;;;28.48;40.98
51321;BME280;38732;49.556;6.286;2022-09-01T10:21:15;99793.63;;;28.65;44.30
51321;BME280;38732;49.556;6.286;2022-09-01T10:23:44;99785.75;;;28.89;40.96
51321;BME280;38732;49.556;6.286;2022-09-01T10:26:20;99781.94;;;29.06;42.26
51321;BME280;38732;49.556;6.286;2022-09-01T10:29:11;99774.84;;;29.31;41.18
51321;BME280;38732;49.556;6.286;2022-09-01T10:31:41;99775.41;;;29.10;41.12
51321;BME280;38732;49.556;6.286;2022-09-01T10:34:13;99770.44;;;29.30;42.21
51321;BME280;38732;49.556;6.286;2022-09-01T10:36:44;99766.22;;;29.51;40.17
51321;BME280;38732;49.556;6.286;2022-09-01T10:39:15;99770.44;;;29.66;41.45
51321;BME280;38732;49.556;6.286;2022-09-01T10:41:49;99769.84;;;30.09;39.64
51321;BME280;38732;49.556;6.286;2022-09-01T10:46:55;99767.03;;;30.80;37.66
51321;BME280;38732;49.556;6.286;2022-09-01T10:51:54;99765.25;;;31.03;35.54
51321;BME280;38732;49.556;6.286;2022-09-01T10:57:23;99763.06;;;30.97;35.91
51321;BME280;38732;49.556;6.286;2022-09-01T10:59:54;99756.84;;;30.63;36.11
51321;BME280;38732;49.556;6.286;2022-09-01T11:02:22;99753.69;;;30.80;36.50
51321;BME280;38732;49.556;6.286;2022-09-01T11:10:35;99745.41;;;32.35;33.54
51321;BME280;38732;49.556;6.286;2022-09-01T11:15:50;99738.84;;;33.20;31.58
51321;BME280;38732;49.556;6.286;2022-09-01T11:18:27;99736.38;;;33.57;30.23
51321;BME280;38732;49.556;6.286;2022-09-01T11:21:15;99736.34;;;34.15;29.10
51321;BME280;38732;49.556;6.286;2022-09-01T11:23:46;99744.81;;;34.11;28.49
51321;BME280;38732;49.556;6.286;2022-09-01T11:26:45;99740.84;;;33.18;29.34
51321;BME280;38732;49.556;6.286;2022-09-01T11:32:24;99739.50;;;34.39;30.97
51321;BME280;38732;49.556;6.286;2022-09-01T11:34:54;99734.81;;;34.50;29.72
51321;BME280;38732;49.556;6.286;2022-09-01T11:37:24;99728.38;;;35.80;28.24
51321;BME280;38732;49.556;6.286;2022-09-01T11:39:59;99725.13;;;36.89;26.71
51321;BME280;38732;49.556;6.286;2022-09-01T11:42:41;99728.31;;;37.84;24.62
51321;BME280;38732;49.556;6.286;2022-09-01T11:45:16;99725.31;;;37.71;23.90
51321;BME280;38732;49.556;6.286;2022-09-01T11:47:51;99719.38;;;36.67;25.04
51321;BME280;38732;49.556;6.286;2022-09-01T11:50:25;99725.72;;;36.66;25.53
51321;BME280;38732;49.556;6.286;2022-09-01T11:53:27;99729.38;;;35.43;25.62
51321;BME280;38732;49.556;6.286;2022-09-01T11:56:23;99730.19;;;34.43;28.14
51321;BME280;38732;49.556;6.286;2022-09-01T11:58:52;99729.34;;;33.66;28.71
51321;BME280;38732;49.556;6.286;2022-09-01T12:01:39;99722.03;;;34.72;27.50
51321;BME280;38732;49.556;6.286;2022-09-01T12:04:23;99717.63;;;35.62;25.66
51321;BME280;38732;49.556;6.286;2022-09-01T12:06:55;99722.59;;;35.39;25.32
51321;BME280;38732;49.556;6.286;2022-09-01T12:09:44;99717.31;;;34.46;27.34
51321;BME280;38732;49.556;6.286;2022-09-01T12:12:28;99712.50;;;34.12;28.23
51321;BME280;38732;49.556;6.286;2022-09-01T12:14:58;99708.72;;;35.26;26.29
51321;BME280;38732;49.556;6.286;2022-09-01T12:17:27;99706.72;;;35.46;25.43
51321;BME280;38732;49.556;6.286;2022-09-01T12:19:58;99708.41;;;35.47;26.40
51321;BME280;38732;49.556;6.286;2022-09-01T12:22:44;99698.41;;;36.96;25.24
51321;BME280;38732;49.556;6.286;2022-09-01T12:25:41;99700.78;;;38.38;22.39
51321;BME280;38732;49.556;6.286;2022-09-01T12:28:10;99702.09;;;39.44;21.24
51321;BME280;38732;49.556;6.286;2022-09-01T12:30:39;99694.63;;;40.07;20.30
51321;BME280;38732;49.556;6.286;2022-09-01T12:33:10;99705.09;;;40.69;19.83
51321;BME280;38732;49.556;6.286;2022-09-01T12:35:39;99704.38;;;40.97;19.82
51321;BME280;38732;49.556;6.286;2022-09-01T12:40:46;99708.47;;;40.27;20.92
51321;BME280;38732;49.556;6.286;2022-09-01T12:43:35;99712.72;;;39.22;22.28
51321;BME280;38732;49.556;6.286;2022-09-01T12:46:06;99712.84;;;38.03;22.31
51321;BME280;38732;49.556;6.286;2022-09-01T12:48:39;99712.47;;;36.73;23.62
51321;BME280;38732;49.556;6.286;2022-09-01T12:51:16;99701.69;;;35.86;23.69
51321;BME280;38732;49.556;6.286;2022-09-01T12:53:57;99702.63;;;35.06;25.09
51321;BME280;38732;49.556;6.286;2022-09-01T12:59:05;99699.44;;;33.80;27.13
51321;BME280;38732;49.556;6.286;2022-09-01T13:01:35;99692.94;;;33.34;28.27
51321;BME280;38732;49.556;6.286;2022-09-01T13:06:38;99693.44;;;32.99;29.15
51321;BME280;38732;49.556;6.286;2022-09-01T13:09:06;99694.34;;;33.19;28.09
51321;BME280;38732;49.556;6.286;2022-09-01T13:11:34;99691.25;;;33.33;28.14
51321;BME280;38732;49.556;6.286;2022-09-01T13:14:03;99686.16;;;34.08;27.92
51321;BME280;38732;49.556;6.286;2022-09-01T13:16:31;99682.00;;;35.78;24.28
51321;BME280;38732;49.556;6.286;2022-09-01T13:19:00;99675.78;;;37.23;22.62
51321;BME280;38732;49.556;6.286;2022-09-01T13:21:29;99673.72;;;37.17;22.59
51321;BME280;38732;49.556;6.286;2022-09-01T13:23:58;99672.22;;;37.14;22.60
51321;BME280;38732;49.556;6.286;2022-09-01T13:26:26;99670.78;;;36.77;22.15
51321;BME280;38732;49.556;6.286;2022-09-01T13:28:54;99681.03;;;36.74;23.52
51321;BME280;38732;49.556;6.286;2022-09-01T13:31:23;99667.97;;;38.18;21.48
51321;BME280;38732;49.556;6.286;2022-09-01T13:33:51;99663.78;;;38.94;20.91
51321;BME280;38732;49.556;6.286;2022-09-01T13:36:19;99657.28;;;39.87;19.28
51321;BME280;38732;49.556;6.286;2022-09-01T13:38:47;99653.19;;;40.36;19.61
51321;BME280;38732;49.556;6.286;2022-09-01T13:41:16;99660.06;;;40.68;18.74
51321;BME280;38732;49.556;6.286;2022-09-01T13:43:44;99653.97;;;41.67;17.38
51321;BME280;38732;49.556;6.286;2022-09-01T13:46:12;99654.53;;;41.13;17.56
51321;BME280;38732;49.556;6.286;2022-09-01T13:48:40;99647.88;;;40.13;18.81
51321;BME280;38732;49.556;6.286;2022-09-01T13:51:09;99654.06;;;40.37;18.05
51321;BME280;38732;49.556;6.286;2022-09-01T13:53:37;99647.97;;;40.86;19.04
51321;BME280;38732;49.556;6.286;2022-09-01T13:56:05;99649.81;;;41.22;17.96
51321;BME280;38732;49.556;6.286;2022-09-01T13:58:33;99637.69;;;41.46;17.37
51321;BME280;38732;49.556;6.286;2022-09-01T14:01:02;99636.16;;;41.58;18.89
51321;BME280;38732;49.556;6.286;2022-09-01T14:03:30;99637.50;;;41.97;18.17
51321;BME280;38732;49.556;6.286;2022-09-01T14:05:58;99632.94;;;42.39;17.24
51321;BME280;38732;49.556;6.286;2022-09-01T14:08:27;99627.16;;;42.20;18.02